sensor_id;sensor_type;location;lat;lon;timestamp;temperature;humidity
5210;DHT22;2624;48.048;11.706;2023-03-01T00:02:02;-0.10;99.90
5210;DHT22;2624;48.048;11.706;2023-03-01T00:07:06;-0.10;99.90
5210;DHT22;2624;48.048;11.706;2023-03-01T00:12:08;-0.10;99.90
5210;DHT22;2624;48.048;11.706;2023-03-01T00:17:10;-0.10;99.90
5210;DHT22;2624;48.048;11.706;2023-03-01T00:22:13;-0.10;99.90
5210;DHT22;2624;48.048;11.706;2023-03-01T00:27:14;-0.10;99.90
5210;DHT22;2624;48.048;11.706;2023-03-01T00:32:16;-0.20;99.90
5210;DHT22;2624;48.048;11.706;2023-03-01T00:37:19;-0.10;99.90
5210;DHT22;2624;48.048;11.706;2023-03-01T00:42:21;-0.10;99.90
5210;DHT22;2624;48.048;11.706;2023-03-01T00:47:23;-0.10;99.90
5210;DHT22;2624;48.048;11.706;2023-03-01T00:52:26;-0.20;99.90
5210;DHT22;2624;48.048;11.706;2023-03-01T00:57:28;-0.20;99.90
5210;DHT22;2624;48.048;11.706;2023-03-01T01:02:32;-0.20;99.90
5210;DHT22;2624;48.048;11.706;2023-03-01T01:07:35;-0.20;99.90
5210;DHT22;2624;48.048;11.706;2023-03-01T01:12:37;-0.20;99.90
5210;DHT22;2624;48.048;11.706;2023-03-01T01:17:38;-0.20;99.90
5210;DHT22;2624;48.048;11.706;2023-03-01T01:22:42;-0.20;99.90
5210;DHT22;2624;48.048;11.706;2023-03-01T01:27:43;-0.20;99.90
5210;DHT22;2624;48.048;11.706;2023-03-01T01:32:45;-0.20;99.90
5210;DHT22;2624;48.048;11.706;2023-03-01T01:37:48;-0.20;99.90
5210;DHT22;2624;48.048;11.706;2023-03-01T01:42:50;-0.20;99.90
5210;DHT22;2624;48.048;11.706;2023-03-01T01:47:52;-0.20;99.90
5210;DHT22;2624;48.048;11.706;2023-03-01T01:52:57;-0.20;99.90
5210;DHT22;2624;48.048;11.706;2023-03-01T01:58:02;-0.20;99.90
5210;DHT22;2624;48.048;11.706;2023-03-01T02:03:09;-0.20;99.90
5210;DHT22;2624;48.048;11.706;2023-03-01T02:08:13;-0.20;99.90
5210;DHT22;2624;48.048;11.706;2023-03-01T02:13:16;-0.20;99.90
5210;DHT22;2624;48.048;11.706;2023-03-01T02:18:20;-0.20;99.90
5210;DHT22;2624;48.048;11.706;2023-03-01T02:23:23;-0.20;99.90
5210;DHT22;2624;48.048;11.706;2023-03-01T02:28:29;-0.20;99.90
5210;DHT22;2624;48.048;11.706;2023-03-01T02:33:33;-0.20;99.90
5210;DHT22;2624;48.048;11.706;2023-03-01T02:38:36;-0.20;99.90
5210;DHT22;2624;48.048;11.706;2023-03-01T02:43:39;-0.30;99.90
5210;DHT22;2624;48.048;11.706;2023-03-01T02:48:43;-0.30;99.90
5210;DHT22;2624;48.048;11.706;2023-03-01T02:53:52;-0.20;99.90
5210;DHT22;2624;48.048;11.706;2023-03-01T02:58:58;-0.10;99.90
5210;DHT22;2624;48.048;11.706;2023-03-01T03:04:01;-0.20;99.90
5210;DHT22;2624;48.048;11.706;2023-03-01T03:09:03;-0.30;99.90
5210;DHT22;2624;48.048;11.706;2023-03-01T03:14:07;-0.30;99.90
5210;DHT22;2624;48.048;11.706;2023-03-01T03:19:13;-0.30;99.90
5210;DHT22;2624;48.048;11.706;2023-03-01T03:24:15;-0.30;99.90
5210;DHT22;2624;48.048;11.706;2023-03-01T03:29:19;-0.30;99.90
5210;DHT22;2624;48.048;11.706;2023-03-01T03:34:20;-0.30;99.90
5210;DHT22;2624;48.048;11.706;2023-03-01T03:39:22;-0.30;99.90
5210;DHT22;2624;48.048;11.706;2023-03-01T03:44:25;-0.30;99.90
5210;DHT22;2624;48.048;11.706;2023-03-01T03:49:27;-0.40;99.90
5210;DHT22;2624;48.048;11.706;2023-03-01T03:54:29;-0.30;99.90
5210;DHT22;2624;48.048;11.706;2023-03-01T03:59:32;-0.40;99.90
5210;DHT22;2624;48.048;11.706;2023-03-01T04:04:34;-0.30;99.90
5210;DHT22;2624;48.048;11.706;2023-03-01T04:09:36;-0.40;99.90
5210;DHT22;2624;48.048;11.706;2023-03-01T04:14:39;-0.40;99.90
5210;DHT22;2624;48.048;11.706;2023-03-01T04:19:41;-0.40;99.90
5210;DHT22;2624;48.048;11.706;2023-03-01T04:24:44;-0.50;99.90
5210;DHT22;2624;48.048;11.706;2023-03-01T04:29:47;-0.40;99.90
5210;DHT22;2624;48.048;11.706;2023-03-01T04:34:49;-0.40;99.90
5210;DHT22;2624;48.048;11.706;2023-03-01T04:39:50;-0.40;99.90
5210;DHT22;2624;48.048;11.706;2023-03-01T04:44:54;-0.50;99.90
5210;DHT22;2624;48.048;11.706;2023-03-01T04:49:55;-0.40;99.90
5210;DHT22;2624;48.048;11.706;2023-03-01T04:54:57;-0.50;99.90
5210;DHT22;2624;48.048;11.706;2023-03-01T05:00:00;-0.60;99.90
5210;DHT22;2624;48.048;11.706;2023-03-01T05:05:21;-0.60;99.90
5210;DHT22;2624;48.048;11.706;2023-03-01T05:10:29;-0.50;99.90
5210;DHT22;2624;48.048;11.706;2023-03-01T05:15:35;-0.50;99.90
5210;DHT22;2624;48.048;11.706;2023-03-01T05:20:38;-0.60;99.90
5210;DHT22;2624;48.048;11.706;2023-03-01T05:25:39;-0.50;99.90
5210;DHT22;2624;48.048;11.706;2023-03-01T05:30:43;-0.60;99.90
5210;DHT22;2624;48.048;11.706;2023-03-01T05:35:45;-0.60;99.90
5210;DHT22;2624;48.048;11.706;2023-03-01T05:40:49;-0.60;99.90
5210;DHT22;2624;48.048;11.706;2023-03-01T05:45:52;-0.60;99.90
5210;DHT22;2624;48.048;11.706;2023-03-01T05:50:53;-0.60;99.90
5210;DHT22;2624;48.048;11.706;2023-03-01T05:55:55;-0.70;99.90
5210;DHT22;2624;48.048;11.706;2023-03-01T06:00:58;-0.70;99.90
5210;DHT22;2624;48.048;11.706;2023-03-01T06:06:00;-0.60;99.90
5210;DHT22;2624;48.048;11.706;2023-03-01T06:11:02;-0.60;99.90
5210;DHT22;2624;48.048;11.706;2023-03-01T06:16:07;-0.60;99.90
5210;DHT22;2624;48.048;11.706;2023-03-01T06:21:08;-0.70;99.90
5210;DHT22;2624;48.048;11.706;2023-03-01T06:26:10;-0.60;99.90
5210;DHT22;2624;48.048;11.706;2023-03-01T06:31:13;-0.60;99.90
5210;DHT22;2624;48.048;11.706;2023-03-01T06:36:15;-0.70;99.90
5210;DHT22;2624;48.048;11.706;2023-03-01T06:41:19;-0.70;99.90
5210;DHT22;2624;48.048;11.706;2023-03-01T06:46:22;-0.60;99.90
5210;DHT22;2624;48.048;11.706;2023-03-01T06:51:24;-0.70;99.90
5210;DHT22;2624;48.048;11.706;2023-03-01T06:56:25;-0.60;99.90
5210;DHT22;2624;48.048;11.706;2023-03-01T07:01:28;-0.60;99.90
5210;DHT22;2624;48.048;11.706;2023-03-01T07:06:30;-0.80;99.90
5210;DHT22;2624;48.048;11.706;2023-03-01T07:11:32;-0.80;99.90
5210;DHT22;2624;48.048;11.706;2023-03-01T07:16:35;-0.70;99.90
5210;DHT22;2624;48.048;11.706;2023-03-01T07:21:37;-0.70;99.90
5210;DHT22;2624;48.048;11.706;2023-03-01T07:26:40;-0.80;99.90
5210;DHT22;2624;48.048;11.706;2023-03-01T07:31:43;-0.80;99.90
5210;DHT22;2624;48.048;11.706;2023-03-01T07:36:45;-0.70;99.90
5210;DHT22;2624;48.048;11.706;2023-03-01T07:41:47;-0.70;99.90
5210;DHT22;2624;48.048;11.706;2023-03-01T07:46:50;-0.70;99.90
5210;DHT22;2624;48.048;11.706;2023-03-01T07:51:52;-0.60;99.90
5210;DHT22;2624;48.048;11.706;2023-03-01T07:56:56;-0.60;99.90
5210;DHT22;2624;48.048;11.706;2023-03-01T08:01:59;-0.60;99.90
5210;DHT22;2624;48.048;11.706;2023-03-01T08:07:01;-0.80;99.90
5210;DHT22;2624;48.048;11.706;2023-03-01T08:12:03;-0.70;99.90
5210;DHT22;2624;48.048;11.706;2023-03-01T08:17:07;-0.70;99.90
5210;DHT22;2624;48.048;11.706;2023-03-01T08:22:08;-0.70;99.90
5210;DHT22;2624;48.048;11.706;2023-03-01T08:27:10;-0.70;99.90
5210;DHT22;2624;48.048;11.706;2023-03-01T08:32:13;-0.60;99.90
5210;DHT22;2624;48.048;11.706;2023-03-01T08:37:15;-0.50;99.90
5210;DHT22;2624;48.048;11.706;2023-03-01T08:42:17;-0.60;99.90
5210;DHT22;2624;48.048;11.706;2023-03-01T08:47:20;-0.60;99.90
5210;DHT22;2624;48.048;11.706;2023-03-01T08:52:22;-0.60;99.90
5210;DHT22;2624;48.048;11.706;2023-03-01T08:57:24;-0.60;99.90
5210;DHT22;2624;48.048;11.706;2023-03-01T09:02:28;-0.50;99.90
5210;DHT22;2624;48.048;11.706;2023-03-01T09:07:29;-0.60;99.90
5210;DHT22;2624;48.048;11.706;2023-03-01T09:12:31;-0.50;99.90
5210;DHT22;2624;48.048;11.706;2023-03-01T09:17:34;-0.50;99.90
5210;DHT22;2624;48.048;11.706;2023-03-01T09:22:36;-0.30;99.90
5210;DHT22;2624;48.048;11.706;2023-03-01T09:27:37;-0.40;99.90
5210;DHT22;2624;48.048;11.706;2023-03-01T09:32:41;-0.40;99.90
5210;DHT22;2624;48.048;11.706;2023-03-01T09:37:43;-0.40;99.90
5210;DHT22;2624;48.048;11.706;2023-03-01T09:42:53;-0.20;99.90
5210;DHT22;2624;48.048;11.706;2023-03-01T09:47:58;-0.20;99.90
5210;DHT22;2624;48.048;11.706;2023-03-01T09:53:01;-0.30;99.90
5210;DHT22;2624;48.048;11.706;2023-03-01T09:58:23;-0.20;99.90
5210;DHT22;2624;48.048;11.706;2023-03-01T10:03:36;-0.10;99.90
5210;DHT22;2624;48.048;11.706;2023-03-01T10:08:42;-0.10;99.90
5210;DHT22;2624;48.048;11.706;2023-03-01T10:13:47;-0.20;99.90
5210;DHT22;2624;48.048;11.706;2023-03-01T10:18:58;-0.10;99.90
5210;DHT22;2624;48.048;11.706;2023-03-01T10:24:10;0.00;99.90
5210;DHT22;2624;48.048;11.706;2023-03-01T10:29:13;0.00;99.90
5210;DHT22;2624;48.048;11.706;2023-03-01T10:34:18;0.00;99.90
5210;DHT22;2624;48.048;11.706;2023-03-01T10:39:22;0.00;99.90
5210;DHT22;2624;48.048;11.706;2023-03-01T10:44:43;0.10;99.90
5210;DHT22;2624;48.048;11.706;2023-03-01T10:49:57;0.10;99.90
5210;DHT22;2624;48.048;11.706;2023-03-01T10:55:03;0.10;99.90
5210;DHT22;2624;48.048;11.706;2023-03-01T11:00:19;0.10;99.90
5210;DHT22;2624;48.048;11.706;2023-03-01T11:05:25;0.20;99.90
5210;DHT22;2624;48.048;11.706;2023-03-01T11:10:30;0.20;99.90
5210;DHT22;2624;48.048;11.706;2023-03-01T11:15:32;0.20;99.90
5210;DHT22;2624;48.048;11.706;2023-03-01T11:20:36;0.20;99.90
5210;DHT22;2624;48.048;11.706;2023-03-01T11:25:41;0.30;99.90
5210;DHT22;2624;48.048;11.706;2023-03-01T11:30:48;0.40;99.90
5210;DHT22;2624;48.048;11.706;2023-03-01T11:35:57;0.40;99.90
5210;DHT22;2624;48.048;11.706;2023-03-01T11:41:06;0.60;99.90
5210;DHT22;2624;48.048;11.706;2023-03-01T11:46:41;0.50;99.90
5210;DHT22;2624;48.048;11.706;2023-03-01T11:51:57;0.60;99.90
5210;DHT22;2624;48.048;11.706;2023-03-01T11:57:05;0.60;99.90
5210;DHT22;2624;48.048;11.706;2023-03-01T12:02:51;0.90;99.90
5210;DHT22;2624;48.048;11.706;2023-03-01T12:08:04;1.30;99.90
5210;DHT22;2624;48.048;11.706;2023-03-01T12:13:21;1.70;99.90
5210;DHT22;2624;48.048;11.706;2023-03-01T12:29:36;2.30;99.90
5210;DHT22;2624;48.048;11.706;2023-03-01T12:35:29;2.50;99.90
5210;DHT22;2624;48.048;11.706;2023-03-01T12:40:53;2.60;99.90
5210;DHT22;2624;48.048;11.706;2023-03-01T12:46:10;2.70;99.90
5210;DHT22;2624;48.048;11.706;2023-03-01T12:51:19;2.90;99.90
5210;DHT22;2624;48.048;11.706;2023-03-01T12:56:26;3.00;99.90
5210;DHT22;2624;48.048;11.706;2023-03-01T13:01:39;3.20;99.90
5210;DHT22;2624;48.048;11.706;2023-03-01T13:06:47;3.20;99.90
5210;DHT22;2624;48.048;11.706;2023-03-01T13:11:53;3.30;99.90
5210;DHT22;2624;48.048;11.706;2023-03-01T13:16:55;3.50;99.90
5210;DHT22;2624;48.048;11.706;2023-03-01T13:21:57;3.30;99.90
5210;DHT22;2624;48.048;11.706;2023-03-01T13:27:22;3.50;99.90
5210;DHT22;2624;48.048;11.706;2023-03-01T13:32:30;3.50;99.90
5210;DHT22;2624;48.048;11.706;2023-03-01T13:37:35;3.80;99.90
5210;DHT22;2624;48.048;11.706;2023-03-01T13:42:41;3.90;99.90
5210;DHT22;2624;48.048;11.706;2023-03-01T13:47:48;3.80;99.90
5210;DHT22;2624;48.048;11.706;2023-03-01T13:52:54;3.50;99.90
5210;DHT22;2624;48.048;11.706;2023-03-01T13:58:01;3.40;99.90
5210;DHT22;2624;48.048;11.706;2023-03-01T14:03:11;3.60;99.90
5210;DHT22;2624;48.048;11.706;2023-03-01T14:08:20;3.60;99.90
5210;DHT22;2624;48.048;11.706;2023-03-01T14:13:45;3.80;99.90
5210;DHT22;2624;48.048;11.706;2023-03-01T14:18:54;3.80;99.90
5210;DHT22;2624;48.048;11.706;2023-03-01T14:23:59;3.70;99.90
5210;DHT22;2624;48.048;11.706;2023-03-01T14:29:02;3.80;99.90
5210;DHT22;2624;48.048;11.706;2023-03-01T14:34:05;3.80;99.90
5210;DHT22;2624;48.048;11.706;2023-03-01T14:39:17;3.90;99.90
5210;DHT22;2624;48.048;11.706;2023-03-01T14:44:22;3.70;99.90
5210;DHT22;2624;48.048;11.706;2023-03-01T14:49:27;3.80;99.90
5210;DHT22;2624;48.048;11.706;2023-03-01T14:54:36;4.00;99.90
5210;DHT22;2624;48.048;11.706;2023-03-01T14:59:41;4.10;99.90
5210;DHT22;2624;48.048;11.706;2023-03-01T15:04:45;4.00;99.90
5210;DHT22;2624;48.048;11.706;2023-03-01T15:09:48;4.00;99.90
5210;DHT22;2624;48.048;11.706;2023-03-01T15:14:51;4.10;99.90
5210;DHT22;2624;48.048;11.706;2023-03-01T15:19:53;4.00;99.90
5210;DHT22;2624;48.048;11.706;2023-03-01T15:24:55;3.80;99.90
5210;DHT22;2624;48.048;11.706;2023-03-01T15:30:00;3.90;99.90
5210;DHT22;2624;48.048;11.706;2023-03-01T15:35:38;3.80;99.90
5210;DHT22;2624;48.048;11.706;2023-03-01T15:40:49;3.90;99.90
5210;DHT22;2624;48.048;11.706;2023-03-01T15:45:57;3.80;99.90
5210;DHT22;2624;48.048;11.706;2023-03-01T15:50:59;3.80;99.90
5210;DHT22;2624;48.048;11.706;2023-03-01T15:56:02;3.70;99.90
5210;DHT22;2624;48.048;11.706;2023-03-01T16:01:10;3.70;99.90
5210;DHT22;2624;48.048;11.706;2023-03-01T16:06:13;3.60;99.90
5210;DHT22;2624;48.048;11.706;2023-03-01T16:11:17;3.60;99.90
5210;DHT22;2624;48.048;11.706;2023-03-01T16:16:20;3.50;99.90
5210;DHT22;2624;48.048;11.706;2023-03-01T16:21:24;3.40;99.90
5210;DHT22;2624;48.048;11.706;2023-03-01T16:26:26;3.30;99.90
5210;DHT22;2624;48.048;11.706;2023-03-01T16:31:29;3.30;99.90
5210;DHT22;2624;48.048;11.706;2023-03-01T16:36:31;3.20;99.90
5210;DHT22;2624;48.048;11.706;2023-03-01T16:41:32;3.10;99.90
5210;DHT22;2624;48.048;11.706;2023-03-01T16:46:36;3.10;99.90
5210;DHT22;2624;48.048;11.706;2023-03-01T16:51:37;3.00;99.90
5210;DHT22;2624;48.048;11.706;2023-03-01T16:56:39;3.00;99.90
5210;DHT22;2624;48.048;11.706;2023-03-01T17:01:42;3.00;99.90
5210;DHT22;2624;48.048;11.706;2023-03-01T17:06:44;2.90;99.90
5210;DHT22;2624;48.048;11.706;2023-03-01T17:11:47;2.90;99.90
5210;DHT22;2624;48.048;11.706;2023-03-01T17:16:50;2.80;99.90
5210;DHT22;2624;48.048;11.706;2023-03-01T17:21:53;2.70;99.90
5210;DHT22;2624;48.048;11.706;2023-03-01T17:26:55;2.70;99.90
5210;DHT22;2624;48.048;11.706;2023-03-01T17:31:58;2.60;99.90
5210;DHT22;2624;48.048;11.706;2023-03-01T17:37:00;2.50;99.90
5210;DHT22;2624;48.048;11.706;2023-03-01T17:42:03;2.50;99.90
5210;DHT22;2624;48.048;11.706;2023-03-01T17:47:07;2.50;99.90
5210;DHT22;2624;48.048;11.706;2023-03-01T17:52:08;2.40;99.90
5210;DHT22;2624;48.048;11.706;2023-03-01T17:57:10;2.30;99.90
5210;DHT22;2624;48.048;11.706;2023-03-01T18:02:14;2.50;99.90
5210;DHT22;2624;48.048;11.706;2023-03-01T18:07:16;2.40;99.90
5210;DHT22;2624;48.048;11.706;2023-03-01T18:12:17;2.50;99.90
5210;DHT22;2624;48.048;11.706;2023-03-01T18:17:21;2.30;99.90
5210;DHT22;2624;48.048;11.706;2023-03-01T18:22:23;2.20;99.90
5210;DHT22;2624;48.048;11.706;2023-03-01T18:27:25;2.20;99.90
5210;DHT22;2624;48.048;11.706;2023-03-01T18:32:28;2.30;99.90
5210;DHT22;2624;48.048;11.706;2023-03-01T18:37:30;2.20;99.90
5210;DHT22;2624;48.048;11.706;2023-03-01T18:42:32;2.20;99.90
5210;DHT22;2624;48.048;11.706;2023-03-01T18:47:35;2.10;99.90
5210;DHT22;2624;48.048;11.706;2023-03-01T18:52:36;1.80;99.90
5210;DHT22;2624;48.048;11.706;2023-03-01T18:57:38;1.80;99.90
5210;DHT22;2624;48.048;11.706;2023-03-01T19:02:41;1.90;99.90
5210;DHT22;2624;48.048;11.706;2023-03-01T19:07:43;1.80;99.90
5210;DHT22;2624;48.048;11.706;2023-03-01T19:12:45;1.80;99.90
5210;DHT22;2624;48.048;11.706;2023-03-01T19:17:48;1.50;99.90
5210;DHT22;2624;48.048;11.706;2023-03-01T19:22:50;1.50;99.90
5210;DHT22;2624;48.048;11.706;2023-03-01T19:27:52;1.80;99.90
5210;DHT22;2624;48.048;11.706;2023-03-01T19:32:55;1.40;99.90
5210;DHT22;2624;48.048;11.706;2023-03-01T19:37:56;1.50;99.90
5210;DHT22;2624;48.048;11.706;2023-03-01T19:42:58;1.60;99.90
5210;DHT22;2624;48.048;11.706;2023-03-01T19:48:01;1.20;99.90
5210;DHT22;2624;48.048;11.706;2023-03-01T19:53:03;1.50;99.90
5210;DHT22;2624;48.048;11.706;2023-03-01T19:58:05;1.20;99.90
5210;DHT22;2624;48.048;11.706;2023-03-01T20:03:09;1.40;99.90
5210;DHT22;2624;48.048;11.706;2023-03-01T20:08:10;1.20;99.90
5210;DHT22;2624;48.048;11.706;2023-03-01T20:13:12;1.10;99.90
5210;DHT22;2624;48.048;11.706;2023-03-01T20:18:15;1.00;99.90
5210;DHT22;2624;48.048;11.706;2023-03-01T20:23:17;0.90;99.90
5210;DHT22;2624;48.048;11.706;2023-03-01T20:28:19;1.10;99.90
5210;DHT22;2624;48.048;11.706;2023-03-01T20:33:22;1.00;99.90
5210;DHT22;2624;48.048;11.706;2023-03-01T20:38:24;1.10;99.90
5210;DHT22;2624;48.048;11.706;2023-03-01T20:43:27;1.10;99.90
5210;DHT22;2624;48.048;11.706;2023-03-01T20:48:30;1.20;99.90
5210;DHT22;2624;48.048;11.706;2023-03-01T20:53:32;1.10;99.90
5210;DHT22;2624;48.048;11.706;2023-03-01T20:58:33;1.10;99.90
5210;DHT22;2624;48.048;11.706;2023-03-01T21:03:37;0.90;99.90
5210;DHT22;2624;48.048;11.706;2023-03-01T21:08:39;0.90;99.90
5210;DHT22;2624;48.048;11.706;2023-03-01T21:13:40;1.00;99.90
5210;DHT22;2624;48.048;11.706;2023-03-01T21:18:45;1.10;99.90
5210;DHT22;2624;48.048;11.706;2023-03-01T21:23:47;1.10;99.90
5210;DHT22;2624;48.048;11.706;2023-03-01T21:28:52;1.00;99.90
5210;DHT22;2624;48.048;11.706;2023-03-01T21:33:57;1.00;99.90
5210;DHT22;2624;48.048;11.706;2023-03-01T21:38:59;0.70;99.90
5210;DHT22;2624;48.048;11.706;2023-03-01T21:44:03;0.90;99.90
5210;DHT22;2624;48.048;11.706;2023-03-01T21:49:08;0.80;99.90
5210;DHT22;2624;48.048;11.706;2023-03-01T21:54:11;0.80;99.90
5210;DHT22;2624;48.048;11.706;2023-03-01T21:59:15;0.80;99.90
5210;DHT22;2624;48.048;11.706;2023-03-01T22:04:18;0.40;99.90
5210;DHT22;2624;48.048;11.706;2023-03-01T22:09:21;0.70;99.90
5210;DHT22;2624;48.048;11.706;2023-03-01T22:14:24;0.70;99.90
5210;DHT22;2624;48.048;11.706;2023-03-01T22:19:27;0.80;99.90
5210;DHT22;2624;48.048;11.706;2023-03-01T22:24:29;0.60;99.90
5210;DHT22;2624;48.048;11.706;2023-03-01T22:29:31;0.70;99.90
5210;DHT22;2624;48.048;11.706;2023-03-01T22:34:34;0.70;99.90
5210;DHT22;2624;48.048;11.706;2023-03-01T22:39:36;0.70;99.90
5210;DHT22;2624;48.048;11.706;2023-03-01T22:44:38;0.60;99.90
5210;DHT22;2624;48.048;11.706;2023-03-01T22:49:42;0.60;99.90
5210;DHT22;2624;48.048;11.706;2023-03-01T22:54:44;0.60;99.90
5210;DHT22;2624;48.048;11.706;2023-03-01T22:59:46;0.40;99.90
5210;DHT22;2624;48.048;11.706;2023-03-01T23:04:49;0.10;99.90
5210;DHT22;2624;48.048;11.706;2023-03-01T23:09:53;0.10;99.90
5210;DHT22;2624;48.048;11.706;2023-03-01T23:14:55;0.00;99.90
5210;DHT22;2624;48.048;11.706;2023-03-01T23:19:58;0.30;99.90
5210;DHT22;2624;48.048;11.706;2023-03-01T23:25:00;0.40;99.90
5210;DHT22;2624;48.048;11.706;2023-03-01T23:30:01;0.40;99.90
5210;DHT22;2624;48.048;11.706;2023-03-01T23:35:06;0.30;99.90
5210;DHT22;2624;48.048;11.706;2023-03-01T23:40:10;0.40;99.90
5210;DHT22;2624;48.048;11.706;2023-03-01T23:45:12;0.30;99.90
5210;DHT22;2624;48.048;11.706;2023-03-01T23:50:15;0.40;99.90
5210;DHT22;2624;48.048;11.706;2023-03-01T23:55:18;0.30;99.90
